Kronshagen, Germany

11:51 PM CEST am 28. April 2017 (GMT +0200)
Kronskamp | | Change Station

Höhe 85 ft 54.33 °N, 10.09 °E | Updated 3 seconds ago

Regen
Regen
42.1 °F
gefühlte 42 °F
N
0.6
Wind Wechselnd Wind aus Südwest
Gusts 1.9 mph

Heute
Max. -- | schwach -- °F
--% Regenrisiko
Gestern
Max. -- | schwach -- °F
Precip. -- inch
Druck 29.92 inch
Sichtweite 6.2 Meilen
Wolken Few 2200 ft
Teils Wolkig 6000 ft
Windchill 42 °F
Taupunkt 37 °F
Feuchtigkeit 83%
Regen 0.08 inch
Schneehöhe Nicht verfügbar..
5:48 AM 8:47 PM
Erstes Viertel, 9% visible
METAR ETNH 282120Z 24003KT 9999 FEW022 SCT060 04/01 Q1013 BLU+
Druck 29.92 inch
Sichtweite 6.2 Meilen
Wolken Few 2200 ft
Teils Wolkig 6000 ft
Windchill 42 °F
Taupunkt 37 °F
Feuchtigkeit 83%
Regen 0.08 inch
Schneehöhe Nicht verfügbar..
5:48 AM 8:47 PM
Erstes Viertel, 9% visible
METAR ETNH 282120Z 24003KT 9999 FEW022 SCT060 04/01 Q1013 BLU+

Get Severe Weather Alerts

Thanks for signing up!

Be on the lookout for a verification email in your inbox.

You'll start receiving the daily forecast at 8 AM.

×

10-Day Weather Forecast

×

Almanac

Astronomie

Apr. 28, 2017 Aufgang Untergang
Genaue Zeit
Bürgerliche Dämmerung
Nautische Dämmerung
Astronomische Dämmerung
Mond
Länge des sichtbaren Lichts
Tageslänge
Tomorrow will be .
, % of the Moon is Illuminated

Heutige Rekorde

Country Highs Country Lows

Community

WunderPhotos

WunderBlog® & News

Nearby

Luftqualität

  Luftqualität LQ Index Schadstoff
Not available.

Schneehöhe

Station Depth Höhe

Erdbebenaktivität

Stadt Distance Mag. Time & Date
Minimum magnitude displayed is 2.5.

küstennahe Wassertemperaturen

Ort Temperatur

Stations

Wetterstationen in der Umgebung

Stationsstandort Temp. Windchill Taupunkt Feuchtigkeit Wind Precip. Höhe Aktualisiert Art